Time;durP1;ratioP1;P1;durP2;ratioP2;P2;SDS_P1;SDS_P2;PMS_P1;PMS_P2;Temp;Humidity;BMP_temperature;BMP_pressure;BME280_temperature;BME280_humidity;BME280_pressure;Samples;Min_cycle;Max_cycle;Signal;HPM_P1;HPM_P2
2022/07/04 00:01:19;;;;;;;5.87;5.27;;;17.00;99.90;;;;;;8372761;28;20189;-63
2022/07/04 00:05:20;;;;;;;5.80;5.20;;;17.00;99.90;;;;;;8392336;28;20193;-62
2022/07/04 00:09:21;;;;;;;5.30;4.80;;;17.10;99.90;;;;;;8375632;28;20208;-68
2022/07/04 00:13:21;;;;;;;5.63;4.97;;;17.10;99.90;;;;;;8374227;28;20187;-62
2022/07/04 00:17:22;;;;;;;5.30;4.87;;;17.10;99.90;;;;;;8381980;28;20201;-62
2022/07/04 00:21:23;;;;;;;4.80;4.40;;;17.10;99.90;;;;;;8369781;28;20196;-62
2022/07/04 00:25:24;;;;;;;4.90;4.47;;;17.10;99.90;;;;;;8370483;28;20228;-62
2022/07/04 00:29:24;;;;;;;5.47;4.77;;;17.10;99.90;;;;;;8371428;28;20188;-63
2022/07/04 00:33:25;;;;;;;5.63;5.13;;;17.10;99.90;;;;;;8377659;28;20193;-61
2022/07/04 00:37:26;;;;;;;6.03;5.30;;;17.00;99.90;;;;;;8375932;28;20193;-62
2022/07/04 00:41:27;;;;;;;5.93;5.40;;;17.10;99.90;;;;;;8379875;28;20253;-62
2022/07/04 00:45:28;;;;;;;5.73;5.10;;;17.00;1.00;;;;;;8368585;28;20203;-62
2022/07/04 00:49:28;;;;;;;5.63;5.10;;;17.00;1.00;;;;;;8371711;28;20213;-62
2022/07/04 00:53:30;;;;;;;6.97;6.00;;;16.80;1.00;;;;;;8387335;28;20536;-62
2022/07/04 00:57:31;;;;;;;5.80;5.10;;;16.70;1.00;;;;;;8368075;28;20196;-61
2022/07/04 01:01:32;;;;;;;5.77;5.20;;;16.70;55.30;;;;;;8375583;28;20192;-62
2022/07/04 01:05:33;;;;;;;5.60;5.13;;;16.50;61.00;;;;;;8376779;28;20266;-61
2022/07/04 01:09:34;;;;;;;5.57;4.83;;;16.40;99.90;;;;;;8369751;28;20259;-63
2022/07/04 01:13:36;;;;;;;7.27;5.40;;;16.30;99.90;;;;;;8374465;28;20196;-64
2022/07/04 01:17:37;;;;;;;5.20;4.70;;;16.30;1.00;;;;;;8369714;28;20208;-62
2022/07/04 01:21:38;;;;;;;5.93;5.40;;;16.30;1.00;;;;;;8385534;28;20197;-63
2022/07/04 01:25:39;;;;;;;5.87;5.30;;;16.30;1.00;;;;;;8371000;28;20221;-62
2022/07/04 01:29:40;;;;;;;5.20;4.70;;;16.30;1.00;;;;;;8375998;28;20217;-64
2022/07/04 01:33:41;;;;;;;5.17;4.67;;;16.10;1.00;;;;;;8375569;28;20629;-62
2022/07/04 01:37:42;;;;;;;6.07;5.03;;;16.00;99.90;;;;;;8375362;28;20197;-62
2022/07/04 01:41:42;;;;;;;5.47;4.90;;;15.90;1.00;;;;;;8369713;28;20186;-62
2022/07/04 01:45:43;;;;;;;5.77;5.17;;;15.90;99.90;;;;;;8368586;28;20268;-62
2022/07/04 01:49:45;;;;;;;5.83;4.97;;;15.90;99.90;;;;;;8372945;28;20301;-63
2022/07/04 01:53:45;;;;;;;5.23;4.83;;;15.90;99.90;;;;;;8374495;28;20186;-62
2022/07/04 01:57:46;;;;;;;5.33;4.90;;;15.90;99.90;;;;;;8376882;28;20189;-62
2022/07/04 02:01:47;;;;;;;6.23;5.27;;;15.80;99.90;;;;;;8371267;28;20189;-65
2022/07/04 02:05:48;;;;;;;5.57;5.17;;;15.80;1.00;;;;;;8376486;28;20489;-62
2022/07/04 02:09:49;;;;;;;6.30;5.40;;;15.80;18.40;;;;;;8385806;28;20209;-63
2022/07/04 02:13:49;;;;;;;4.73;4.33;;;15.70;13.50;;;;;;8374853;28;20186;-66
2022/07/04 02:17:50;;;;;;;6.87;5.30;;;15.60;99.90;;;;;;8375738;28;20197;-62
2022/07/04 02:21:51;;;;;;;5.63;5.13;;;15.30;99.90;;;;;;8385532;28;20247;-62
2022/07/04 02:25:52;;;;;;;6.00;5.47;;;15.20;1.00;;;;;;8377355;28;20197;-62
2022/07/04 02:29:53;;;;;;;5.83;5.33;;;14.90;99.90;;;;;;8380227;28;20209;-61
2022/07/04 02:33:54;;;;;;;6.40;5.80;;;14.80;1.00;;;;;;8373448;28;20194;-63
2022/07/04 02:37:54;;;;;;;6.40;5.70;;;14.70;1.00;;;;;;8369373;28;20194;-61
2022/07/04 02:41:55;;;;;;;5.53;5.03;;;14.60;96.10;;;;;;8374312;28;20190;-63
2022/07/04 02:45:56;;;;;;;5.00;4.60;;;14.50;1.00;;;;;;8373000;28;20213;-62
2022/07/04 02:49:57;;;;;;;5.33;4.87;;;14.40;99.90;;;;;;8377233;28;20208;-62
2022/07/04 02:53:58;;;;;;;5.70;5.10;;;14.40;31.10;;;;;;8376128;28;20185;-62
2022/07/04 02:57:58;;;;;;;6.13;5.53;;;14.30;99.90;;;;;;8374070;28;20189;-61
2022/07/04 03:01:59;;;;;;;6.00;5.50;;;14.30;99.90;;;;;;8379728;28;20226;-61
2022/07/04 03:06:00;;;;;;;5.23;4.83;;;14.30;1.00;;;;;;8374213;28;20324;-61
2022/07/04 03:10:01;;;;;;;6.23;5.63;;;14.30;1.00;;;;;;8378344;28;20207;-62
2022/07/04 03:14:02;;;;;;;6.27;5.67;;;14.30;99.90;;;;;;8372825;28;20210;-61
2022/07/04 03:18:03;;;;;;;6.80;6.20;;;14.30;1.00;;;;;;8373051;28;20205;-62
2022/07/04 03:22:04;;;;;;;6.90;6.30;;;14.50;1.00;;;;;;8371254;28;20274;-62
2022/07/04 03:26:04;;;;;;;7.37;5.93;;;15.20;99.90;;;;;;8375717;28;20197;-62
2022/07/04 03:30:06;;;;;;;6.10;5.13;;;16.10;99.90;;;;;;8372689;28;20205;-62
2022/07/04 03:34:07;;;;;;;5.83;5.33;;;17.20;99.90;;;;;;8373011;28;20186;-61
2022/07/04 03:38:07;;;;;;;4.97;4.50;;;18.20;99.90;;;;;;8374029;28;20252;-62
2022/07/04 03:42:08;;;;;;;4.60;4.20;;;19.10;1.00;;;;;;8381472;28;20295;-62
2022/07/04 03:46:09;;;;;;;5.90;4.63;;;20.10;99.90;;;;;;8389793;28;20185;-63
2022/07/04 03:50:10;;;;;;;5.17;4.67;;;20.90;99.90;;;;;;8373229;28;20217;-62
2022/07/04 03:54:10;;;;;;;4.70;3.93;;;21.50;99.90;;;;;;8374237;28;20200;-64
2022/07/04 03:58:11;;;;;;;4.10;3.77;;;22.00;99.90;;;;;;8374859;28;20186;-63
2022/07/04 04:02:12;;;;;;;4.53;4.10;;;22.30;94.90;;;;;;8373706;28;20193;-63
2022/07/04 04:06:13;;;;;;;5.43;4.10;;;22.40;75.20;;;;;;8373113;28;20193;-63
2022/07/04 04:10:14;;;;;;;5.33;4.30;;;22.70;53.50;;;;;;8374669;28;20205;-62
2022/07/04 04:14:14;;;;;;;4.07;3.73;;;22.60;48.10;;;;;;8368396;28;20186;-66
2022/07/04 04:18:18;;;;;;;5.10;3.33;;;22.80;36.30;;;;;;8374125;28;20350;-62
2022/07/04 04:22:20;;;;;;;3.73;3.43;;;22.70;30.20;;;;;;8372536;28;20225;-63
2022/07/04 04:26:21;;;;;;;4.10;3.30;;;22.90;39.00;;;;;;8373856;28;20200;-62
2022/07/04 04:30:22;;;;;;;3.03;2.33;;;23.70;17.00;;;;;;8371637;28;20287;-63
2022/07/04 04:34:23;;;;;;;2.63;2.30;;;24.80;1.00;;;;;;8371370;28;20185;-62
2022/07/04 04:38:23;;;;;;;4.10;2.83;;;25.70;1.00;;;;;;8373793;28;20201;-63
2022/07/04 04:42:24;;;;;;;2.60;2.33;;;26.10;1.00;;;;;;8373763;28;20193;-61
2022/07/04 04:46:25;;;;;;;5.50;2.53;;;26.30;1.00;;;;;;8375590;28;20185;-61
2022/07/04 04:50:26;;;;;;;3.00;2.07;;;26.10;1.00;;;;;;8374928;28;20353;-61
2022/07/04 04:54:27;;;;;;;4.80;2.40;;;26.20;1.00;;;;;;8369436;28;20243;-62
2022/07/04 04:58:27;;;;;;;3.43;1.93;;;25.70;1.00;;;;;;8362882;28;20185;-61
2022/07/04 05:02:28;;;;;;;2.63;2.20;;;25.00;1.00;;;;;;8367363;28;20196;-61
2022/07/04 05:06:29;;;;;;;5.20;2.47;;;24.60;1.00;;;;;;8386004;28;20580;-63
2022/07/04 05:10:30;;;;;;;2.30;2.10;;;24.70;1.00;;;;;;8380879;28;20216;-64
2022/07/04 05:14:31;;;;;;;2.30;1.90;;;24.80;1.00;;;;;;8370847;28;20186;-68
2022/07/04 05:18:32;;;;;;;2.13;1.93;;;24.60;1.00;;;;;;8371159;28;20294;-71
2022/07/04 05:22:33;;;;;;;2.53;2.33;;;24.10;1.00;;;;;;8368706;28;20288;-65
2022/07/04 05:26:33;;;;;;;3.17;2.20;;;23.50;1.00;;;;;;8372956;28;20262;-68
2022/07/04 05:30:34;;;;;;;5.13;2.47;;;23.30;1.00;;;;;;8368514;28;20216;-68
2022/07/04 05:34:35;;;;;;;2.73;2.53;;;23.10;1.00;;;;;;8376544;28;20215;-65
2022/07/04 05:38:36;;;;;;;3.27;2.47;;;23.10;1.00;;;;;;8375925;28;20221;-67
2022/07/04 05:42:37;;;;;;;6.67;2.70;;;22.90;1.00;;;;;;8380095;28;20208;-66
2022/07/04 05:46:38;;;;;;;3.13;2.43;;;22.80;1.00;;;;;;8391903;28;20218;-65
2022/07/04 05:50:38;;;;;;;4.73;2.90;;;22.80;7.10;;;;;;8371523;28;20437;-63
2022/07/04 05:54:39;;;;;;;3.43;2.43;;;22.90;6.40;;;;;;8370300;28;20189;-63
2022/07/04 05:58:40;;;;;;;3.70;2.80;;;23.10;7.30;;;;;;8371271;28;20185;-65
2022/07/04 06:02:42;;;;;;;2.80;2.60;;;23.10;4.70;;;;;;8377255;28;20223;-67
2022/07/04 06:06:43;;;;;;;3.10;2.87;;;23.00;15.60;;;;;;8373874;28;20241;-67
2022/07/04 06:10:44;;;;;;;3.40;3.10;;;23.10;14.70;;;;;;8396227;28;20212;-67
2022/07/04 06:14:45;;;;;;;3.03;2.77;;;23.00;15.80;;;;;;8376467;28;20247;-65
2022/07/04 06:18:46;;;;;;;3.50;3.27;;;23.10;16.20;;;;;;8369994;28;20231;-66
2022/07/04 06:22:49;;;;;;;5.63;3.20;;;23.00;17.30;;;;;;8378701;28;20197;-68
2022/07/04 06:26:49;;;;;;;3.80;2.90;;;23.00;18.80;;;;;;8373057;28;20189;-67
2022/07/04 06:30:50;;;;;;;13.83;3.70;;;23.20;11.10;;;;;;8387228;28;20208;-66
2022/07/04 06:39:10;;;;;;;5.53;3.30;;;22.70;41.00;;;;;;8373217;28;20315;-64
2022/07/04 06:43:12;;;;;;;4.43;3.53;;;22.50;52.60;;;;;;8370897;28;20194;-66
2022/07/04 06:47:13;;;;;;;4.00;3.70;;;22.60;88.20;;;;;;8389700;28;20208;-64
2022/07/04 06:51:14;;;;;;;7.53;3.80;;;22.60;84.10;;;;;;8376146;28;20212;-66
2022/07/04 06:55:14;;;;;;;4.43;3.90;;;22.50;90.80;;;;;;8374677;28;20188;-67
2022/07/04 06:59:15;;;;;;;4.37;3.60;;;22.60;63.50;;;;;;8377806;28;20185;-66
2022/07/04 07:03:16;;;;;;;3.07;2.87;;;22.80;61.40;;;;;;8369789;28;20190;-67
2022/07/04 07:07:17;;;;;;;4.20;3.60;;;23.00;54.80;;;;;;8368186;28;20251;-68
2022/07/04 07:11:19;;;;;;;3.63;3.33;;;23.10;47.90;;;;;;8376367;28;20212;-71
2022/07/04 07:15:20;;;;;;;5.77;3.13;;;23.20;30.60;;;;;;8373735;28;20181;-68
2022/07/04 07:19:21;;;;;;;3.57;3.27;;;23.30;24.70;;;;;;8372854;28;20185;-69
2022/07/04 07:23:22;;;;;;;3.30;2.93;;;23.40;18.30;;;;;;8370788;28;20193;-68
2022/07/04 07:27:23;;;;;;;3.60;3.10;;;23.60;15.90;;;;;;8378940;28;20196;-68
2022/07/04 07:31:23;;;;;;;3.90;3.03;;;23.80;3.40;;;;;;8377470;28;20243;-64
2022/07/04 07:35:24;;;;;;;3.50;3.20;;;23.70;10.40;;;;;;8368233;28;20192;-70
2022/07/04 07:39:25;;;;;;;3.73;3.07;;;23.90;1.00;;;;;;8368274;28;20212;-67
2022/07/04 07:43:26;;;;;;;5.80;3.00;;;24.00;7.50;;;;;;8374080;28;20185;-62
2022/07/04 07:47:27;;;;;;;3.00;2.80;;;24.20;1.00;;;;;;8370222;28;20189;-70
2022/07/04 07:51:27;;;;;;;2.80;2.60;;;24.30;1.00;;;;;;8373812;28;20215;-67
2022/07/04 07:55:28;;;;;;;4.47;2.97;;;24.20;1.00;;;;;;8374059;28;20340;-68
2022/07/04 07:59:29;;;;;;;3.20;2.90;;;24.30;1.00;;;;;;8372255;28;20181;-65
2022/07/04 08:07:49;;;;;;;3.93;2.87;;;24.60;1.00;;;;;;8369696;28;20231;-66
2022/07/04 08:11:50;;;;;;;2.87;2.50;;;24.80;1.00;;;;;;8370702;28;20216;-66
2022/07/04 08:15:51;;;;;;;3.80;2.70;;;25.00;1.00;;;;;;8370582;28;20196;-69
2022/07/04 08:19:52;;;;;;;3.13;2.47;;;25.00;1.00;;;;;;8370496;28;20196;-67
2022/07/04 08:23:53;;;;;;;5.77;2.57;;;25.20;1.00;;;;;;8370074;28;20287;-67
2022/07/04 08:27:54;;;;;;;3.23;2.50;;;25.30;1.00;;;;;;8369988;28;20196;-69
2022/07/04 08:31:57;;;;;;;3.83;2.30;;;25.30;1.00;;;;;;8368766;28;20408;-65
2022/07/04 08:35:58;;;;;;;3.80;2.40;;;25.20;1.00;;;;;;8366084;28;20211;-68
2022/07/04 08:39:59;;;;;;;5.00;2.30;;;25.10;1.00;;;;;;8371150;28;20186;-69
2022/07/04 08:44:00;;;;;;;2.90;2.30;;;25.00;1.00;;;;;;8372101;28;20185;-66
2022/07/04 08:48:09;;;;;;;5.93;2.13;;;25.30;1.00;;;;;;8367425;28;20190;-63
2022/07/04 08:52:11;;;;;;;3.37;2.70;;;25.80;1.00;;;;;;8372600;28;20212;-65
2022/07/04 09:00:31;;;;;;;1.93;1.73;;;25.80;1.00;;;;;;8362135;28;20200;-65
2022/07/04 09:04:33;;;;;;;2.73;2.27;;;25.90;1.00;;;;;;8368979;28;20185;-66
2022/07/04 09:08:33;;;;;;;4.10;2.10;;;26.00;1.00;;;;;;8368560;28;20344;-67
2022/07/04 09:12:34;;;;;;;2.30;1.80;;;26.00;1.00;;;;;;8370714;28;20217;-69
2022/07/04 09:16:35;;;;;;;2.43;1.90;;;26.00;1.00;;;;;;8371018;28;20212;-69
2022/07/04 09:20:36;;;;;;;2.20;1.93;;;26.10;1.00;;;;;;8370271;28;20235;-66
2022/07/04 09:24:52;;;;;;;3.53;1.60;;;26.20;1.00;;;;;;8366958;28;20189;-67
2022/07/04 09:28:56;;;;;;;1.70;1.60;;;26.30;1.00;;;;;;8387412;28;20196;-68
2022/07/04 09:33:00;;;;;;;6.63;2.00;;;26.40;1.00;;;;;;8371156;28;20213;-67
2022/07/04 09:37:01;;;;;;;3.72;1.70;;;26.60;1.00;;;;;;8367906;28;20264;-66
2022/07/04 09:45:24;;;;;;;3.42;1.38;;;27.00;1.00;;;;;;8368757;28;20216;-69
2022/07/04 09:49:24;;;;;;;1.50;1.40;;;27.00;1.00;;;;;;8368918;28;20186;-68
2022/07/04 09:53:27;;;;;;;3.08;1.52;;;27.20;1.00;;;;;;8372950;28;20233;-67
2022/07/04 09:57:31;;;;;;;1.98;1.60;;;27.20;1.00;;;;;;8369086;28;20209;-68
2022/07/04 10:01:31;;;;;;;1.80;1.55;;;27.20;1.00;;;;;;8375367;28;20209;-65
2022/07/04 10:05:32;;;;;;;2.53;1.70;;;27.30;1.00;;;;;;8374506;28;20197;-70
2022/07/04 10:09:33;;;;;;;2.92;1.58;;;27.20;1.00;;;;;;8372768;28;20191;-69
2022/07/04 10:13:34;;;;;;;1.45;1.20;;;27.30;1.00;;;;;;8374119;28;20188;-67
2022/07/04 10:17:34;;;;;;;1.92;1.25;;;27.30;1.00;;;;;;8388855;28;20204;-67
2022/07/04 10:21:35;;;;;;;4.10;1.42;;;27.40;1.00;;;;;;8378493;28;20196;-70
2022/07/04 10:25:37;;;;;;;2.40;1.27;;;27.30;1.00;;;;;;8370788;28;20465;-68
2022/07/04 10:29:38;;;;;;;1.17;1.08;;;27.40;1.00;;;;;;8376221;28;20277;-66
2022/07/04 10:33:40;;;;;;;1.48;1.23;;;27.50;1.00;;;;;;8377922;28;20231;-66
2022/07/04 10:38:07;;;;;;;1.67;1.17;;;27.70;1.00;;;;;;8377112;28;20186;-68
2022/07/04 10:42:08;;;;;;;1.42;1.15;;;27.70;1.00;;;;;;8372873;28;20186;-67
2022/07/04 10:46:19;;;;;;;1.80;1.20;;;27.60;1.00;;;;;;8372666;28;20190;-69
2022/07/04 10:50:29;;;;;;;2.35;1.17;;;27.60;1.00;;;;;;8375269;28;20201;-70
2022/07/04 10:54:35;;;;;;;3.25;1.45;;;27.70;1.00;;;;;;8389097;28;20254;-68
2022/07/04 10:58:41;;;;;;;2.50;1.20;;;27.70;1.00;;;;;;8373220;28;21153;-65
2022/07/04 11:02:41;;;;;;;1.42;1.33;;;27.60;1.00;;;;;;8378310;28;20277;-65
2022/07/04 11:06:43;;;;;;;3.30;1.00;;;27.60;1.00;;;;;;8368385;28;20185;-63
2022/07/04 11:10:43;;;;;;;2.20;1.40;;;27.80;1.00;;;;;;8372266;28;20209;-65
2022/07/04 11:14:45;;;;;;;1.98;1.60;;;27.80;1.00;;;;;;8372541;28;20192;-70
2022/07/04 11:18:47;;;;;;;2.15;1.38;;;27.70;1.00;;;;;;8371364;28;20224;-63
2022/07/04 11:22:48;;;;;;;1.45;1.10;;;27.50;1.00;;;;;;8379401;28;20193;-65
2022/07/04 11:26:52;;;;;;;1.55;1.17;;;27.80;1.00;;;;;;8372234;28;20189;-67
2022/07/04 11:30:54;;;;;;;3.20;1.17;;;27.80;1.00;;;;;;8372586;28;20216;-68
2022/07/04 11:34:56;;;;;;;1.55;1.25;;;27.90;1.00;;;;;;8388994;28;20184;-62
2022/07/04 11:39:04;;;;;;;1.38;1.20;;;28.30;1.00;;;;;;8377722;28;20185;-65
2022/07/04 11:47:38;;;;;;;1.20;1.10;;;28.30;1.00;;;;;;8376124;28;20204;-64
2022/07/04 11:51:47;;;;;;;1.75;1.00;;;28.30;1.00;;;;;;8371403;28;20217;-66
2022/07/04 11:55:56;;;;;;;2.05;1.40;;;28.20;1.00;;;;;;8369722;28;20182;-66
2022/07/04 12:00:04;;;;;;;1.90;1.27;;;28.00;1.00;;;;;;8373636;28;20210;-66
2022/07/04 12:04:12;;;;;;;1.88;1.23;;;28.10;1.00;;;;;;8370875;28;20181;-66
2022/07/04 12:08:13;;;;;;;1.45;1.33;;;27.90;1.00;;;;;;8372538;28;20473;-68
2022/07/04 12:12:17;;;;;;;4.53;1.30;;;27.80;1.00;;;;;;8370239;28;20231;-64
2022/07/04 12:16:18;;;;;;;1.85;1.10;;;28.00;1.00;;;;;;8367464;28;20196;-64
2022/07/04 12:20:19;;;;;;;3.22;1.42;;;28.30;1.00;;;;;;8366382;28;20194;-67
2022/07/04 12:24:19;;;;;;;1.00;1.00;;;28.10;1.00;;;;;;8372018;28;20186;-64
2022/07/04 12:28:23;;;;;;;1.98;1.40;;;28.40;1.00;;;;;;8369574;28;20199;-66
2022/07/04 12:32:42;;;;;;;2.38;1.17;;;28.20;1.00;;;;;;8369125;28;20209;-63
2022/07/04 12:36:54;;;;;;;1.30;1.20;;;28.00;1.00;;;;;;8370846;28;20177;-64
2022/07/04 12:40:56;;;;;;;1.50;1.40;;;28.30;1.00;;;;;;8373241;28;20185;-65
2022/07/04 12:45:06;;;;;;;1.92;1.30;;;29.00;1.00;;;;;;8366138;28;20218;-66
2022/07/04 12:49:07;;;;;;;1.95;1.20;;;29.30;1.00;;;;;;8367842;28;20182;-65
2022/07/04 12:53:08;;;;;;;1.98;1.13;;;29.00;1.00;;;;;;8367532;28;20232;-67
2022/07/04 12:57:15;;;;;;;3.40;1.20;;;28.80;1.00;;;;;;8370923;28;20188;-65
2022/07/04 13:01:16;;;;;;;1.40;1.10;;;28.70;1.00;;;;;;8369242;28;20220;-64
2022/07/04 13:05:16;;;;;;;2.88;1.40;;;28.60;1.00;;;;;;8370911;28;20178;-61
2022/07/04 13:09:17;;;;;;;4.55;1.23;;;28.80;1.00;;;;;;8372444;28;20189;-67
2022/07/04 13:13:18;;;;;;;1.27;1.17;;;28.80;1.00;;;;;;8369409;28;20299;-67
2022/07/04 13:17:20;;;;;;;1.48;1.15;;;28.80;1.00;;;;;;8372094;28;20197;-65
2022/07/04 13:21:20;;;;;;;1.83;1.10;;;28.50;1.00;;;;;;8375374;28;20191;-64
2022/07/04 13:25:22;;;;;;;1.80;1.00;;;28.30;1.00;;;;;;8376080;28;20189;-67
2022/07/04 13:29:22;;;;;;;3.40;1.17;;;28.30;1.00;;;;;;8389377;28;20190;-64
2022/07/04 13:33:23;;;;;;;1.95;1.30;;;28.40;1.00;;;;;;8370094;28;20242;-62
2022/07/04 13:37:24;;;;;;;1.25;0.95;;;28.50;1.00;;;;;;8375941;28;20248;-62
2022/07/04 13:41:25;;;;;;;1.65;0.90;;;28.60;1.00;;;;;;8388256;28;20196;-63
2022/07/04 13:45:26;;;;;;;3.80;1.30;;;28.70;1.00;;;;;;8374029;28;20220;-62
2022/07/04 13:49:27;;;;;;;1.40;1.15;;;29.00;1.00;;;;;;8380761;28;20190;-65
2022/07/04 13:53:28;;;;;;;1.95;1.20;;;29.20;1.00;;;;;;8376584;28;20205;-63
2022/07/04 13:57:29;;;;;;;4.32;1.52;;;29.00;1.00;;;;;;8376664;28;20188;-67
2022/07/04 14:01:30;;;;;;;2.13;1.33;;;28.70;1.00;;;;;;8375335;28;20208;-63
2022/07/04 14:05:32;;;;;;;2.33;1.08;;;28.60;1.00;;;;;;8391613;28;20185;-66
2022/07/04 14:09:32;;;;;;;1.30;1.00;;;28.60;1.00;;;;;;8372359;28;20193;-63
2022/07/04 14:13:33;;;;;;;1.90;1.00;;;28.60;1.00;;;;;;8389636;28;20214;-66
2022/07/04 14:17:35;;;;;;;2.13;1.08;;;28.50;1.00;;;;;;8376313;28;20196;-65
2022/07/04 14:21:36;;;;;;;1.10;0.80;;;28.30;1.00;;;;;;8376641;28;20193;-62
2022/07/04 14:25:37;;;;;;;1.15;0.95;;;28.20;1.00;;;;;;8390516;28;20229;-62
2022/07/04 14:29:37;;;;;;;2.25;1.02;;;28.10;1.00;;;;;;8375112;28;20185;-63
2022/07/04 14:33:38;;;;;;;1.83;1.20;;;28.30;1.00;;;;;;8373227;28;20228;-64
2022/07/04 14:37:39;;;;;;;2.88;1.20;;;28.30;1.00;;;;;;8376218;28;20182;-65
2022/07/04 14:41:40;;;;;;;6.03;1.23;;;28.70;1.00;;;;;;8372019;28;20236;-63
2022/07/04 14:45:41;;;;;;;1.75;1.02;;;29.00;1.00;;;;;;8372583;28;20185;-63
2022/07/04 14:49:41;;;;;;;3.80;1.10;;;28.90;1.00;;;;;;8373146;28;20210;-65
2022/07/04 14:53:42;;;;;;;1.67;1.00;;;28.60;1.00;;;;;;8374238;28;20259;-63
2022/07/04 14:57:43;;;;;;;2.03;0.80;;;28.50;1.00;;;;;;8370484;28;20177;-62
2022/07/04 15:01:44;;;;;;;1.42;0.98;;;28.80;1.00;;;;;;8376241;28;20216;-61
2022/07/04 15:05:45;;;;;;;2.47;0.90;;;28.70;99.90;;;;;;8376578;28;20188;-62
2022/07/04 15:09:45;;;;;;;2.60;1.10;;;28.70;99.90;;;;;;8393243;28;20195;-63
2022/07/04 15:13:46;;;;;;;2.55;1.40;;;28.30;1.00;;;;;;8375183;28;20185;-67
2022/07/04 15:17:47;;;;;;;1.65;1.13;;;28.00;1.00;;;;;;8374861;28;20208;-63
2022/07/04 15:26:08;;;;;;;2.38;1.30;;;27.50;1.00;;;;;;8374847;28;20221;-64
2022/07/04 15:30:09;;;;;;;3.00;1.35;;;27.50;1.00;;;;;;8374734;28;20209;-65
2022/07/04 15:34:10;;;;;;;1.58;1.40;;;27.50;1.00;;;;;;8374818;28;20646;-63
2022/07/04 15:38:11;;;;;;;3.10;1.33;;;27.40;1.00;;;;;;8372330;28;20188;-62
2022/07/04 15:42:12;;;;;;;3.35;1.60;;;27.10;1.00;;;;;;8378745;28;20182;-65
2022/07/04 15:46:13;;;;;;;4.22;1.60;;;26.90;1.00;;;;;;8370846;28;20247;-64
2022/07/04 15:50:14;;;;;;;2.65;1.60;;;26.70;1.00;;;;;;8392171;28;20239;-63
2022/07/04 15:54:15;;;;;;;3.67;1.63;;;26.60;1.00;;;;;;8370020;28;20188;-62
2022/07/04 15:58:16;;;;;;;1.92;1.30;;;26.50;1.00;;;;;;8368481;28;20232;-63
2022/07/04 16:02:16;;;;;;;3.97;1.50;;;26.40;1.00;;;;;;8367562;28;20188;-61
2022/07/04 16:06:17;;;;;;;2.83;1.63;;;26.40;1.00;;;;;;8374525;28;20188;-65
2022/07/04 16:10:18;;;;;;;2.05;1.85;;;26.30;1.00;;;;;;8371553;28;20277;-62
2022/07/04 16:14:20;;;;;;;4.00;2.10;;;26.10;1.00;;;;;;8371459;28;20181;-64
2022/07/04 16:18:21;;;;;;;2.40;1.67;;;25.80;17.90;;;;;;8369943;28;20316;-65
2022/07/04 16:22:22;;;;;;;3.37;1.60;;;25.40;59.20;;;;;;8374064;28;20189;-64
2022/07/04 16:26:22;;;;;;;2.20;1.60;;;25.10;99.90;;;;;;8369715;28;20212;-66
2022/07/04 16:30:23;;;;;;;2.77;1.73;;;24.90;99.90;;;;;;8372076;28;20220;-67
2022/07/04 16:34:24;;;;;;;4.50;2.00;;;24.80;99.90;;;;;;8366102;28;20253;-65
2022/07/04 16:38:25;;;;;;;3.27;1.73;;;24.90;99.90;;;;;;8380119;28;20195;-66
2022/07/04 16:42:26;;;;;;;1.87;1.77;;;25.10;99.90;;;;;;8371298;28;20216;-65
2022/07/04 16:46:27;;;;;;;3.50;2.13;;;25.60;80.00;;;;;;8368509;28;20268;-63
2022/07/04 16:50:27;;;;;;;2.27;2.07;;;25.50;79.40;;;;;;8375787;28;20213;-62
2022/07/04 16:54:28;;;;;;;4.83;2.20;;;25.50;1.00;;;;;;8370939;28;20193;-66
2022/07/04 16:58:29;;;;;;;4.13;1.90;;;25.40;1.00;;;;;;8372443;28;20212;-63
2022/07/04 17:02:29;;;;;;;6.63;2.00;;;25.50;1.00;;;;;;8375186;28;20200;-66
2022/07/04 17:06:30;;;;;;;2.00;1.80;;;25.40;1.00;;;;;;8370467;28;20202;-62
2022/07/04 17:10:31;;;;;;;3.50;2.77;;;25.50;1.00;;;;;;8367257;28;20422;-65
2022/07/04 17:14:32;;;;;;;3.40;1.67;;;25.70;1.00;;;;;;8369531;28;20185;-64
2022/07/04 17:18:33;;;;;;;2.57;2.10;;;25.80;1.00;;;;;;8369200;28;20201;-62
2022/07/04 17:22:36;;;;;;;3.83;2.10;;;26.00;1.00;;;;;;8384177;28;20295;-65
2022/07/04 17:26:37;;;;;;;2.83;1.80;;;26.00;1.00;;;;;;8372313;28;20189;-67
2022/07/04 17:30:38;;;;;;;2.90;1.90;;;25.90;1.00;;;;;;8373624;28;20204;-65
2022/07/04 17:34:39;;;;;;;3.10;2.00;;;25.70;1.00;;;;;;8377256;28;20471;-63
2022/07/04 17:38:40;;;;;;;3.27;2.70;;;25.50;1.00;;;;;;8372884;28;20196;-63
2022/07/04 17:42:40;;;;;;;2.93;2.03;;;25.30;1.00;;;;;;8376755;28;20194;-62
2022/07/04 17:46:42;;;;;;;3.10;2.00;;;25.20;1.00;;;;;;8380712;28;20204;-63
2022/07/04 17:50:44;;;;;;;2.20;2.00;;;25.10;10.20;;;;;;8376823;28;20214;-64
2022/07/04 17:54:44;;;;;;;4.13;1.90;;;25.00;24.30;;;;;;8376643;28;20213;-62
2022/07/04 17:58:45;;;;;;;2.13;1.83;;;25.00;25.80;;;;;;8380605;28;20196;-62
2022/07/04 18:02:46;;;;;;;1.93;1.83;;;25.00;12.80;;;;;;8378152;28;20578;-62
2022/07/04 18:06:46;;;;;;;2.87;1.87;;;24.90;19.60;;;;;;8378838;28;20220;-62
2022/07/04 18:10:47;;;;;;;2.27;1.83;;;24.80;30.00;;;;;;8378841;28;20296;-62
2022/07/04 18:14:48;;;;;;;2.63;2.23;;;24.70;99.90;;;;;;8375503;28;20186;-70
2022/07/04 18:18:49;;;;;;;2.40;2.20;;;24.90;99.90;;;;;;8376645;28;20236;-61
2022/07/04 18:22:51;;;;;;;3.47;2.40;;;25.90;86.80;;;;;;8376064;28;20196;-63
2022/07/04 18:26:52;;;;;;;2.20;2.00;;;27.10;4.40;;;;;;8373621;28;20185;-62
2022/07/04 18:31:01;;;;;;;3.13;2.08;;;27.40;1.00;;;;;;8371645;28;20209;-62
2022/07/04 18:35:03;;;;;;;2.15;1.92;;;28.40;1.00;;;;;;8378568;28;20407;-62
2022/07/04 18:39:04;;;;;;;2.47;1.95;;;29.10;1.00;;;;;;8382193;28;20276;-62
2022/07/04 18:47:24;;;;;;;2.28;1.88;;;29.70;1.00;;;;;;8376153;28;20232;-62
2022/07/04 18:51:29;;;;;;;2.22;1.90;;;29.50;1.00;;;;;;8376055;28;20209;-62
2022/07/04 18:55:30;;;;;;;2.83;1.88;;;29.20;1.00;;;;;;8375140;28;20213;-62
2022/07/04 18:59:30;;;;;;;2.47;2.22;;;28.70;1.00;;;;;;8369548;28;20189;-62
2022/07/04 19:03:31;;;;;;;2.63;2.28;;;28.00;1.00;;;;;;8373060;28;20216;-62
2022/07/04 19:07:32;;;;;;;3.40;2.40;;;27.10;1.00;;;;;;8373263;28;20226;-62
2022/07/04 19:11:33;;;;;;;3.70;2.92;;;26.10;1.00;;;;;;8372405;28;20208;-62
2022/07/04 19:15:34;;;;;;;4.63;3.33;;;25.30;54.30;;;;;;8372430;28;20204;-63
2022/07/04 19:19:35;;;;;;;8.50;5.87;;;24.70;99.90;;;;;;8373693;28;20185;-72
2022/07/04 19:23:36;;;;;;;8.13;5.57;;;24.10;99.90;;;;;;8368364;28;20189;-63
2022/07/04 19:27:37;;;;;;;7.93;6.00;;;23.70;99.90;;;;;;8374301;28;20185;-62
2022/07/04 19:31:38;;;;;;;6.87;5.53;;;23.20;99.90;;;;;;8374713;28;20305;-63
2022/07/04 19:35:39;;;;;;;6.83;5.40;;;22.90;99.90;;;;;;8371763;28;20181;-63
2022/07/04 19:39:40;;;;;;;5.77;4.10;;;22.70;1.00;;;;;;8370838;28;20197;-62
2022/07/04 19:43:41;;;;;;;4.17;3.30;;;22.50;1.00;;;;;;8374769;28;20194;-63
2022/07/04 19:47:42;;;;;;;3.63;3.30;;;22.20;1.00;;;;;;8372032;28;20192;-64
2022/07/04 19:52:28;;;;;;;3.17;2.87;;;21.90;99.90;;;;;;8372122;28;20201;-65
2022/07/04 19:56:04;;;;;;;4.30;3.20;;;21.60;99.90;;;;;;8367804;28;20209;-64
2022/07/04 20:00:08;;;;;;;6.07;3.20;;;21.40;99.90;;;;;;8367458;28;20205;-65
2022/07/04 20:04:10;;;;;;;4.13;3.30;;;21.30;99.90;;;;;;8369970;28;20430;-66
2022/07/04 20:08:18;;;;;;;4.90;3.40;;;21.20;99.90;;;;;;8372009;27;20904;-65
2022/07/04 20:12:22;;;;;;;4.40;3.27;;;21.10;99.90;;;;;;8376504;28;20181;-66
2022/07/04 20:16:25;;;;;;;3.87;3.20;;;21.20;99.90;;;;;;8370236;28;20326;-68
2022/07/04 20:20:26;;;;;;;3.50;3.20;;;21.10;99.90;;;;;;8375401;28;20193;-65
2022/07/04 20:24:27;;;;;;;3.57;3.03;;;21.00;99.90;;;;;;8373837;28;20399;-65
2022/07/04 20:28:27;;;;;;;3.53;3.23;;;21.00;99.90;;;;;;8378501;28;20189;-65
2022/07/04 20:32:29;;;;;;;4.20;3.80;;;21.00;99.90;;;;;;8376208;28;20236;-65
2022/07/04 20:36:29;;;;;;;3.90;3.60;;;21.00;99.90;;;;;;8371644;28;20237;-66
2022/07/04 20:40:30;;;;;;;3.60;3.30;;;20.80;99.90;;;;;;8374578;28;20234;-66
2022/07/04 20:44:32;;;;;;;4.17;3.73;;;20.70;99.90;;;;;;8381495;28;20193;-66
2022/07/04 20:48:32;;;;;;;4.30;3.60;;;20.70;99.90;;;;;;8407186;28;20180;-66
2022/07/04 20:52:33;;;;;;;3.63;3.33;;;20.70;99.90;;;;;;8344844;28;20210;-66
2022/07/04 20:56:36;;;;;;;5.20;4.03;;;20.80;99.90;;;;;;8338007;28;20194;-66
2022/07/04 21:00:38;;;;;;;4.37;3.80;;;21.10;37.50;;;;;;8337647;28;20218;-66
2022/07/04 21:04:40;;;;;;;4.27;3.90;;;21.30;1.00;;;;;;8332567;28;20217;-64
2022/07/04 21:08:41;;;;;;;5.80;4.70;;;21.20;1.00;;;;;;8330641;28;20171;-63
2022/07/04 21:12:42;;;;;;;6.23;4.80;;;20.90;73.30;;;;;;8338036;28;20246;-64
2022/07/04 21:16:43;;;;;;;5.50;5.00;;;20.60;99.90;;;;;;8324829;28;20182;-64
2022/07/04 21:20:44;;;;;;;4.70;4.30;;;20.30;99.90;;;;;;8320258;28;20210;-64
2022/07/04 21:24:45;;;;;;;5.67;4.77;;;20.00;99.90;;;;;;8307887;28;20329;-65
2022/07/04 21:28:45;;;;;;;5.13;4.57;;;19.70;1.00;;;;;;8318551;28;20242;-65
2022/07/04 21:32:46;;;;;;;5.60;4.80;;;19.50;28.20;;;;;;8312154;28;20186;-64
2022/07/04 21:36:47;;;;;;;3.70;3.37;;;19.10;99.90;;;;;;8311953;28;20187;-65